Time;durP1;ratioP1;P1;durP2;ratioP2;P2;SDS_P1;SDS_P2;PMS_P1;PMS_P2;Temp;Humidity;BMP_temperature;BMP_pressure;BME280_temperature;BME280_humidity;BME280_pressure;Samples;Min_cycle;Max_cycle;Signal;HPM_P1;HPM_P2
2023/09/09 00:00:39;;;;;;;194.73;184.00;;;25.90;99.90;;;;;;5049911;28;20043;-74
2023/09/09 00:03:06;;;;;;;197.50;187.30;;;25.80;99.90;;;;;;5052417;28;20044;-74
2023/09/09 00:05:33;;;;;;;190.48;180.23;;;25.80;99.90;;;;;;5051323;28;20037;-74
2023/09/09 00:08:00;;;;;;;184.32;174.43;;;25.70;99.90;;;;;;5051667;28;20411;-74
2023/09/09 00:10:26;;;;;;;206.98;195.98;;;25.70;99.90;;;;;;5050566;28;20025;-74
2023/09/09 00:12:52;;;;;;;192.80;182.77;;;25.70;99.90;;;;;;5051898;28;20467;-74
2023/09/09 00:15:18;;;;;;;175.27;166.45;;;25.70;99.90;;;;;;5050314;28;20044;-74
2023/09/09 00:17:44;;;;;;;167.60;158.88;;;25.80;99.90;;;;;;5052185;28;20044;-74
2023/09/09 00:20:11;;;;;;;259.83;246.77;;;25.80;99.90;;;;;;5051770;28;20026;-74
2023/09/09 00:22:38;;;;;;;266.98;253.43;;;25.70;99.90;;;;;;5051539;28;20407;-74
2023/09/09 00:25:05;;;;;;;232.32;220.05;;;25.70;99.90;;;;;;5050373;28;20049;-74
2023/09/09 00:27:31;;;;;;;184.25;174.43;;;25.70;99.90;;;;;;5051667;28;20398;-74
2023/09/09 00:29:57;;;;;;;174.85;165.63;;;25.60;99.90;;;;;;5051431;28;20025;-74
2023/09/09 00:32:24;;;;;;;180.45;171.10;;;25.70;99.90;;;;;;5051184;28;20037;-74
2023/09/09 00:34:51;;;;;;;199.02;188.90;;;25.60;99.90;;;;;;5051935;28;20036;-74
2023/09/09 00:37:17;;;;;;;241.75;229.07;;;25.70;99.90;;;;;;5051453;28;20029;-74
2023/09/09 00:39:43;;;;;;;271.70;257.63;;;25.60;99.90;;;;;;5051838;28;20021;-74
2023/09/09 00:42:09;;;;;;;260.67;246.98;;;25.60;99.90;;;;;;5051534;28;20036;-74
2023/09/09 00:44:36;;;;;;;205.00;194.63;;;25.60;99.90;;;;;;5051983;28;20033;-74
2023/09/09 00:47:02;;;;;;;194.50;183.98;;;25.60;99.90;;;;;;5050888;28;20041;-74
2023/09/09 00:49:28;;;;;;;195.50;185.55;;;25.50;99.90;;;;;;5050666;28;20041;-73
2023/09/09 00:51:54;;;;;;;179.48;170.30;;;25.40;99.90;;;;;;5051210;28;20460;-74
2023/09/09 00:54:20;;;;;;;203.07;192.18;;;25.40;99.90;;;;;;5050716;28;20033;-74
2023/09/09 00:56:46;;;;;;;238.60;226.27;;;25.40;99.90;;;;;;5050271;28;20025;-74
2023/09/09 00:59:12;;;;;;;239.35;226.48;;;25.40;99.90;;;;;;5050509;28;20032;-74
2023/09/09 01:01:38;;;;;;;251.20;238.48;;;25.40;99.90;;;;;;5050113;28;20033;-74
2023/09/09 01:04:05;;;;;;;231.68;219.68;;;25.40;99.90;;;;;;5051704;28;20029;-74
2023/09/09 01:06:31;;;;;;;169.18;160.13;;;25.40;99.90;;;;;;5049232;28;20040;-74
2023/09/09 01:08:57;;;;;;;170.05;161.15;;;25.40;99.90;;;;;;5051631;28;20387;-74
2023/09/09 01:11:23;;;;;;;199.40;189.25;;;25.30;99.90;;;;;;5050055;28;20036;-74
2023/09/09 01:13:49;;;;;;;192.63;182.77;;;25.30;99.90;;;;;;5051493;28;20045;-74
2023/09/09 01:16:15;;;;;;;178.52;169.15;;;25.20;99.90;;;;;;5050927;28;20029;-74
2023/09/09 01:18:41;;;;;;;191.57;181.85;;;25.10;99.90;;;;;;5051629;28;20063;-74
2023/09/09 01:21:08;;;;;;;169.40;160.35;;;25.20;99.90;;;;;;5033192;28;20505;-74
2023/09/09 01:23:35;;;;;;;176.23;167.02;;;25.10;99.90;;;;;;5051628;28;20039;-73
2023/09/09 01:26:01;;;;;;;169.05;160.27;;;25.10;99.90;;;;;;5051290;28;20029;-74
2023/09/09 01:28:27;;;;;;;199.65;189.05;;;25.10;99.90;;;;;;5051460;28;20032;-74
2023/09/09 01:30:53;;;;;;;147.30;139.55;;;25.10;99.90;;;;;;5050673;28;20036;-73
2023/09/09 01:33:19;;;;;;;159.20;150.30;;;25.10;99.90;;;;;;5032597;28;20034;-74
2023/09/09 01:35:46;;;;;;;109.75;102.75;;;25.00;99.90;;;;;;5036048;28;20044;-74
2023/09/09 01:38:12;;;;;;;111.45;105.22;;;24.90;99.90;;;;;;5050791;28;20033;-74
2023/09/09 01:40:39;;;;;;;116.18;109.78;;;24.90;99.90;;;;;;5051781;28;20025;-75
2023/09/09 01:43:05;;;;;;;79.47;74.97;;;24.90;99.90;;;;;;5055013;28;20033;-75
2023/09/09 01:45:31;;;;;;;79.03;74.32;;;24.80;99.90;;;;;;5054074;28;20037;-75
2023/09/09 01:47:58;;;;;;;117.25;111.00;;;24.80;99.90;;;;;;5054866;28;20041;-75
2023/09/09 01:50:24;;;;;;;91.18;86.10;;;24.80;99.90;;;;;;5054184;28;20017;-75
2023/09/09 01:52:50;;;;;;;76.28;71.68;;;24.60;99.90;;;;;;5054719;28;20036;-75
2023/09/09 01:55:16;;;;;;;90.88;85.18;;;24.70;99.90;;;;;;5053241;28;20021;-75
2023/09/09 01:57:42;;;;;;;103.75;97.97;;;24.60;99.90;;;;;;5054361;28;20048;-75
2023/09/09 02:00:09;;;;;;;88.70;83.38;;;24.60;99.90;;;;;;5053488;28;20398;-75
2023/09/09 02:02:36;;;;;;;93.20;87.82;;;24.60;99.90;;;;;;5054279;28;20522;-75
2023/09/09 02:05:02;;;;;;;79.20;74.22;;;24.70;99.90;;;;;;5053968;28;20498;-75
2023/09/09 02:07:28;;;;;;;77.25;72.68;;;24.40;99.90;;;;;;5054141;28;20029;-75
2023/09/09 02:09:54;;;;;;;68.75;64.50;;;24.40;99.90;;;;;;5054609;28;20091;-75
2023/09/09 02:12:21;;;;;;;83.03;78.28;;;24.30;99.90;;;;;;5053705;28;20045;-75
2023/09/09 02:14:47;;;;;;;71.50;66.80;;;24.30;99.90;;;;;;5054161;28;20045;-75
2023/09/09 02:17:13;;;;;;;67.93;64.10;;;24.30;99.90;;;;;;5053544;28;20060;-75
2023/09/09 02:19:40;;;;;;;89.45;83.90;;;24.40;99.90;;;;;;5053875;28;20040;-75
2023/09/09 02:22:06;;;;;;;79.50;74.47;;;24.40;99.90;;;;;;5053910;28;20025;-74
2023/09/09 02:24:32;;;;;;;79.03;74.63;;;24.40;99.90;;;;;;5054282;28;20040;-75
2023/09/09 02:26:58;;;;;;;68.30;64.30;;;24.40;99.90;;;;;;5054056;28;20025;-75
2023/09/09 02:29:24;;;;;;;83.65;78.57;;;24.40;99.90;;;;;;5053923;28;20052;-75
2023/09/09 02:31:50;;;;;;;78.03;73.38;;;24.40;99.90;;;;;;5046606;28;20040;-75
2023/09/09 02:34:16;;;;;;;82.00;77.22;;;24.40;99.90;;;;;;5033733;28;20029;-75
2023/09/09 02:36:43;;;;;;;77.93;72.95;;;24.40;99.90;;;;;;5046827;28;20025;-75
2023/09/09 02:39:10;;;;;;;74.25;69.95;;;24.30;99.90;;;;;;5053888;28;20033;-75
2023/09/09 02:41:36;;;;;;;78.43;73.75;;;24.30;99.90;;;;;;5053302;28;20387;-75
2023/09/09 02:44:02;;;;;;;77.63;73.07;;;24.30;99.90;;;;;;5053895;28;20033;-75
2023/09/09 02:46:28;;;;;;;84.47;79.35;;;24.30;99.90;;;;;;5053029;28;20081;-75
2023/09/09 02:48:54;;;;;;;84.70;79.53;;;24.30;99.90;;;;;;5053426;28;20376;-76
2023/09/09 02:51:20;;;;;;;81.32;76.45;;;24.30;99.90;;;;;;5052978;28;20032;-75
2023/09/09 02:53:46;;;;;;;85.93;80.95;;;24.30;99.90;;;;;;5053150;28;20391;-75
2023/09/09 02:56:12;;;;;;;85.97;81.00;;;24.30;99.90;;;;;;5052043;28;20040;-75
2023/09/09 02:58:39;;;;;;;97.05;91.88;;;24.30;99.90;;;;;;5053646;28;20383;-75
2023/09/09 03:01:05;;;;;;;98.80;93.30;;;24.20;99.90;;;;;;5052659;28;20044;-75
2023/09/09 03:03:33;;;;;;;92.45;87.40;;;24.20;99.90;;;;;;5052957;28;20103;-75
2023/09/09 03:06:00;;;;;;;99.40;93.60;;;24.20;99.90;;;;;;5051905;28;20021;-75
2023/09/09 03:08:26;;;;;;;101.40;95.80;;;24.20;99.90;;;;;;5052347;28;20471;-75
2023/09/09 03:10:53;;;;;;;111.45;105.25;;;24.10;99.90;;;;;;5052905;28;20048;-75
2023/09/09 03:13:19;;;;;;;116.15;109.63;;;24.10;99.90;;;;;;5053218;28;20387;-75
2023/09/09 03:15:45;;;;;;;95.47;90.00;;;24.10;99.90;;;;;;5052150;28;20037;-75
2023/09/09 03:18:11;;;;;;;140.18;132.75;;;24.10;99.90;;;;;;5052939;28;20036;-75
2023/09/09 03:20:37;;;;;;;104.50;98.78;;;24.00;99.90;;;;;;5052954;28;20021;-75
2023/09/09 03:23:04;;;;;;;91.70;86.50;;;24.00;99.90;;;;;;5053030;28;20486;-75
2023/09/09 03:25:30;;;;;;;80.05;75.30;;;24.00;99.90;;;;;;5052740;28;20029;-75
2023/09/09 03:27:56;;;;;;;107.03;100.95;;;23.90;99.90;;;;;;5051609;28;20502;-75
2023/09/09 03:30:22;;;;;;;109.50;103.47;;;24.00;99.90;;;;;;5051954;28;20041;-75
2023/09/09 03:32:48;;;;;;;148.07;140.07;;;24.00;99.90;;;;;;5051721;28;20390;-74
2023/09/09 03:35:14;;;;;;;86.25;81.10;;;23.90;99.90;;;;;;5052540;28;20029;-75
2023/09/09 03:37:40;;;;;;;75.18;70.60;;;23.90;99.90;;;;;;5052821;28;20036;-75
2023/09/09 03:40:07;;;;;;;74.18;69.82;;;23.80;99.90;;;;;;5052867;28;20029;-75
2023/09/09 03:42:33;;;;;;;62.28;58.53;;;23.70;99.90;;;;;;5052391;28;20390;-75
2023/09/09 03:44:59;;;;;;;66.57;62.50;;;23.80;99.90;;;;;;5052211;28;20051;-76
2023/09/09 03:47:25;;;;;;;69.93;65.32;;;23.70;99.90;;;;;;5051864;28;20029;-74
2023/09/09 03:49:53;;;;;;;100.38;94.60;;;23.70;99.90;;;;;;5052841;28;20040;-75
2023/09/09 03:52:20;;;;;;;117.18;110.70;;;23.80;99.90;;;;;;5051925;28;20045;-75
2023/09/09 03:54:46;;;;;;;164.65;156.10;;;23.80;99.90;;;;;;5051467;28;20045;-74
2023/09/09 03:57:12;;;;;;;171.02;161.40;;;23.80;99.90;;;;;;5052131;28;20033;-75
2023/09/09 03:59:38;;;;;;;142.23;134.32;;;23.70;99.90;;;;;;5052005;28;20025;-76
2023/09/09 04:02:04;;;;;;;111.82;105.88;;;23.60;99.90;;;;;;5051770;28;20033;-75
2023/09/09 04:04:30;;;;;;;92.80;86.80;;;23.40;99.90;;;;;;5051473;28;20391;-76
2023/09/09 04:06:56;;;;;;;124.28;117.50;;;23.50;99.90;;;;;;5051675;28;20036;-75
2023/09/09 04:09:26;;;;;;;146.15;138.68;;;23.50;99.90;;;;;;5052100;28;20044;-76
2023/09/09 04:11:53;;;;;;;124.82;118.25;;;23.50;99.90;;;;;;5051732;28;20403;-75
2023/09/09 04:14:19;;;;;;;107.95;102.10;;;23.50;99.90;;;;;;5051531;28;20491;-75
2023/09/09 04:16:45;;;;;;;129.80;122.88;;;23.50;99.90;;;;;;5051618;28;20037;-76
2023/09/09 04:19:11;;;;;;;150.80;142.90;;;23.50;99.90;;;;;;5051658;28;20095;-75
2023/09/09 04:21:37;;;;;;;109.97;104.30;;;23.50;99.90;;;;;;5051436;28;20041;-76
2023/09/09 04:24:03;;;;;;;98.82;93.10;;;23.40;99.90;;;;;;5052230;28;20029;-76
2023/09/09 04:26:29;;;;;;;85.07;80.00;;;23.30;99.90;;;;;;5051607;28;20029;-76
2023/09/09 04:28:55;;;;;;;79.50;74.78;;;23.20;99.90;;;;;;5051628;28;20498;-76
2023/09/09 04:31:22;;;;;;;93.28;88.30;;;23.20;99.90;;;;;;5049151;28;20037;-76
2023/09/09 04:33:48;;;;;;;129.13;122.18;;;23.30;99.90;;;;;;5050065;28;20502;-76
2023/09/09 04:36:14;;;;;;;107.35;101.38;;;23.30;99.90;;;;;;5051241;28;20479;-75
2023/09/09 04:38:40;;;;;;;79.97;75.03;;;23.30;99.90;;;;;;5052024;28;20032;-76
2023/09/09 04:41:06;;;;;;;83.00;78.07;;;23.30;99.90;;;;;;5051603;28;20028;-75
2023/09/09 04:43:32;;;;;;;71.85;67.55;;;23.20;99.90;;;;;;5049946;28;20055;-75
2023/09/09 04:45:58;;;;;;;69.40;65.30;;;23.20;99.90;;;;;;5049933;28;20052;-76
2023/09/09 04:48:25;;;;;;;99.47;93.60;;;23.20;99.90;;;;;;5051600;28;20041;-76
2023/09/09 04:50:51;;;;;;;71.20;66.82;;;23.20;99.90;;;;;;5051610;28;20032;-75
2023/09/09 04:53:17;;;;;;;80.25;75.72;;;22.90;99.90;;;;;;5052022;28;20459;-76
2023/09/09 04:55:43;;;;;;;114.45;108.18;;;22.50;99.90;;;;;;5050322;28;20033;-76
2023/09/09 04:58:10;;;;;;;121.47;114.88;;;22.50;99.90;;;;;;5051535;28;20383;-75
2023/09/09 05:00:36;;;;;;;96.45;91.05;;;22.50;99.90;;;;;;5049370;28;20041;-76
2023/09/09 05:03:02;;;;;;;78.70;74.10;;;22.30;99.90;;;;;;5052045;28;20064;-75
2023/09/09 05:05:28;;;;;;;74.88;70.47;;;22.20;99.90;;;;;;5051326;28;20033;-75
2023/09/09 05:07:54;;;;;;;63.72;59.85;;;22.20;99.90;;;;;;5051635;28;20195;-75
2023/09/09 05:10:22;;;;;;;54.58;51.17;;;22.10;99.90;;;;;;5051732;28;20025;-75
2023/09/09 05:12:48;;;;;;;59.28;55.63;;;22.20;99.90;;;;;;5049486;28;20107;-74
2023/09/09 05:15:16;;;;;;;56.00;52.33;;;22.20;99.90;;;;;;5052970;28;20036;-75
2023/09/09 05:17:42;;;;;;;53.80;50.47;;;22.10;99.90;;;;;;5054720;28;20049;-76
2023/09/09 05:20:09;;;;;;;52.35;48.88;;;21.90;99.90;;;;;;5055310;28;20032;-75
2023/09/09 05:22:35;;;;;;;46.45;43.25;;;21.70;99.90;;;;;;5055639;28;20041;-76
2023/09/09 05:25:02;;;;;;;44.50;41.40;;;21.80;99.90;;;;;;5055332;28;20020;-75
2023/09/09 05:27:29;;;;;;;59.30;55.65;;;21.80;99.90;;;;;;5054746;28;20060;-75
2023/09/09 05:29:55;;;;;;;47.55;44.42;;;22.00;99.90;;;;;;5054026;28;20048;-75
2023/09/09 05:32:22;;;;;;;50.97;47.55;;;22.10;99.90;;;;;;5054287;28;20044;-75
2023/09/09 05:34:48;;;;;;;50.10;46.78;;;22.20;99.90;;;;;;5053542;28;20037;-75
2023/09/09 05:37:14;;;;;;;68.03;63.72;;;22.30;99.90;;;;;;5054716;28;20356;-75
2023/09/09 05:39:40;;;;;;;61.03;56.85;;;22.40;99.90;;;;;;5054849;28;20044;-75
2023/09/09 05:42:06;;;;;;;48.90;45.67;;;22.40;99.90;;;;;;5052230;28;20037;-75
2023/09/09 05:44:34;;;;;;;58.67;54.97;;;22.50;99.90;;;;;;5054969;28;20037;-75
2023/09/09 05:47:00;;;;;;;68.80;64.63;;;22.40;99.90;;;;;;5052871;28;20399;-75
2023/09/09 05:49:27;;;;;;;94.55;89.20;;;22.50;99.90;;;;;;5053632;28;20036;-75
2023/09/09 05:51:53;;;;;;;75.13;70.38;;;22.50;99.90;;;;;;5054490;28;20378;-75
2023/09/09 05:54:19;;;;;;;65.53;61.45;;;22.50;99.90;;;;;;5054713;28;20032;-75
2023/09/09 05:56:45;;;;;;;92.13;86.80;;;22.50;99.90;;;;;;5054018;28;20395;-75
2023/09/09 05:59:11;;;;;;;81.32;76.18;;;22.60;99.90;;;;;;5053115;28;20045;-75
2023/09/09 06:01:37;;;;;;;69.05;64.82;;;22.60;99.90;;;;;;5053707;28;20044;-75
2023/09/09 06:04:04;;;;;;;57.78;53.90;;;22.60;99.90;;;;;;5054881;28;20033;-76
2023/09/09 06:06:30;;;;;;;76.70;71.82;;;22.60;99.90;;;;;;5054129;28;20036;-76
2023/09/09 06:08:57;;;;;;;81.47;76.60;;;22.50;99.90;;;;;;5053362;28;20041;-76
2023/09/09 06:11:23;;;;;;;96.35;90.70;;;22.50;99.90;;;;;;5053881;28;20040;-75
2023/09/09 06:13:49;;;;;;;109.65;103.28;;;22.60;99.90;;;;;;5053183;28;20487;-75
2023/09/09 06:16:15;;;;;;;79.45;74.53;;;22.60;99.90;;;;;;5053666;28;20100;-75
2023/09/09 06:18:41;;;;;;;98.45;93.03;;;22.80;99.90;;;;;;5052809;28;20484;-75
2023/09/09 06:21:07;;;;;;;125.30;118.43;;;22.90;99.90;;;;;;5054200;28;20041;-76
2023/09/09 06:23:35;;;;;;;150.90;142.65;;;22.90;99.90;;;;;;5054227;28;20387;-76
2023/09/09 06:26:01;;;;;;;139.32;131.88;;;22.80;99.90;;;;;;5052904;28;20041;-75
2023/09/09 06:28:27;;;;;;;145.82;137.95;;;23.00;99.90;;;;;;5053589;28;20041;-78
2023/09/09 06:30:53;;;;;;;165.05;156.25;;;23.00;99.90;;;;;;5052062;28;20506;-75
2023/09/09 06:33:20;;;;;;;191.73;181.80;;;23.00;99.90;;;;;;5052785;28;20036;-75
2023/09/09 06:35:52;;;;;;;173.77;164.63;;;22.90;99.90;;;;;;5053583;28;20384;-75
2023/09/09 06:38:19;;;;;;;158.38;150.13;;;22.90;99.90;;;;;;5053939;28;20021;-76
2023/09/09 06:40:45;;;;;;;192.57;181.95;;;23.10;99.90;;;;;;5053358;28;20044;-76
2023/09/09 06:43:12;;;;;;;213.18;201.80;;;23.20;99.90;;;;;;5035879;28;20033;-75
2023/09/09 06:45:39;;;;;;;217.90;206.50;;;23.10;99.90;;;;;;5053098;28;20476;-75
2023/09/09 06:48:05;;;;;;;244.70;232.07;;;23.00;99.90;;;;;;5052552;28;20379;-75
2023/09/09 06:50:31;;;;;;;211.55;200.27;;;22.90;99.90;;;;;;5051745;28;20048;-75
2023/09/09 06:52:58;;;;;;;250.93;238.02;;;23.10;99.90;;;;;;5036195;28;20033;-75
2023/09/09 06:55:24;;;;;;;230.05;218.50;;;23.40;99.90;;;;;;5052923;28;20036;-75
2023/09/09 06:57:50;;;;;;;216.15;204.75;;;23.40;99.90;;;;;;5052066;28;20040;-75
2023/09/09 07:00:16;;;;;;;175.45;166.45;;;23.30;99.90;;;;;;5052804;28;20033;-75
2023/09/09 07:02:42;;;;;;;164.02;155.35;;;23.20;99.90;;;;;;5053582;28;20029;-75
2023/09/09 07:05:09;;;;;;;188.07;178.38;;;23.20;99.90;;;;;;5051757;28;20041;-75
2023/09/09 07:07:35;;;;;;;228.15;216.48;;;23.20;99.90;;;;;;5032851;28;20037;-75
2023/09/09 07:10:01;;;;;;;229.68;217.63;;;23.30;99.90;;;;;;5033319;28;20360;-75
2023/09/09 07:12:27;;;;;;;215.73;204.80;;;23.50;99.90;;;;;;5052029;28;20029;-75
2023/09/09 07:14:53;;;;;;;172.57;163.57;;;23.40;99.90;;;;;;5053083;28;20056;-75
2023/09/09 07:17:19;;;;;;;177.45;167.98;;;23.50;99.90;;;;;;5052535;28;20454;-75
2023/09/09 07:19:45;;;;;;;164.32;155.73;;;23.60;99.90;;;;;;5053188;28;20037;-75
2023/09/09 07:22:11;;;;;;;168.82;159.48;;;23.60;99.90;;;;;;5052486;28;20033;-75
2023/09/09 07:24:38;;;;;;;181.15;170.75;;;23.60;99.90;;;;;;5053208;28;20379;-75
2023/09/09 07:27:04;;;;;;;216.45;204.98;;;23.80;99.90;;;;;;5052742;28;20043;-75
2023/09/09 07:29:30;;;;;;;225.05;213.40;;;24.00;99.90;;;;;;5052983;28;20486;-74
2023/09/09 07:31:56;;;;;;;260.70;247.77;;;24.30;99.90;;;;;;5043046;28;20400;-75
2023/09/09 07:34:24;;;;;;;272.08;258.00;;;24.60;99.90;;;;;;5033109;28;20029;-75
2023/09/09 07:36:51;;;;;;;259.50;246.70;;;24.80;99.90;;;;;;5046268;28;20029;-74
2023/09/09 07:39:17;;;;;;;294.58;279.52;;;25.00;99.90;;;;;;5052333;28;20033;-75
2023/09/09 07:41:43;;;;;;;325.52;308.80;;;25.10;99.90;;;;;;5034706;28;20039;-75
2023/09/09 07:44:09;;;;;;;313.33;297.77;;;25.10;99.90;;;;;;5051476;28;20040;-75
2023/09/09 07:46:35;;;;;;;334.75;317.45;;;25.00;99.90;;;;;;5051664;28;20060;-75
2023/09/09 07:49:01;;;;;;;356.00;337.60;;;25.00;99.90;;;;;;5052202;28;20048;-75
2023/09/09 07:51:28;;;;;;;365.73;346.55;;;24.90;99.90;;;;;;5051869;28;20032;-74
2023/09/09 07:53:54;;;;;;;393.67;372.92;;;25.00;99.90;;;;;;5052748;28;20029;-75
2023/09/09 07:56:20;;;;;;;386.45;366.27;;;25.10;99.90;;;;;;5050859;28;20048;-75
2023/09/09 07:58:46;;;;;;;567.58;533.53;;;25.20;99.90;;;;;;5052532;28;20025;-74
2023/09/09 08:01:13;;;;;;;407.40;385.38;;;25.30;99.90;;;;;;5051534;28;20045;-74
2023/09/09 08:03:39;;;;;;;363.13;343.80;;;25.60;99.90;;;;;;5052249;28;20452;-74
2023/09/09 08:06:06;;;;;;;364.60;345.35;;;26.00;99.90;;;;;;5051840;28;20033;-75
2023/09/09 08:08:34;;;;;;;353.23;334.10;;;26.10;99.90;;;;;;5052358;28;20029;-75
2023/09/09 08:11:03;;;;;;;340.92;323.27;;;26.00;99.90;;;;;;5050909;28;20036;-74
2023/09/09 08:13:29;;;;;;;348.67;330.52;;;26.10;99.90;;;;;;5051741;28;20045;-74
2023/09/09 08:15:57;;;;;;;312.98;296.38;;;26.20;99.90;;;;;;5051381;28;20037;-74
2023/09/09 08:18:25;;;;;;;277.77;263.25;;;26.40;99.90;;;;;;5052118;28;20487;-74
2023/09/09 08:20:51;;;;;;;301.65;285.95;;;26.70;99.90;;;;;;5051426;28;20032;-74
2023/09/09 08:23:18;;;;;;;273.67;259.20;;;27.10;99.90;;;;;;5052274;28;20037;-74
2023/09/09 08:25:44;;;;;;;256.80;243.82;;;27.60;99.90;;;;;;5051345;28;20045;-74
2023/09/09 08:28:10;;;;;;;333.58;316.38;;;27.80;99.90;;;;;;5051738;28;20052;-74
2023/09/09 08:30:36;;;;;;;341.58;324.33;;;28.10;99.90;;;;;;5050055;28;20044;-75
2023/09/09 08:33:03;;;;;;;494.17;467.23;;;28.50;99.90;;;;;;5051948;28;20167;-75
2023/09/09 08:35:32;;;;;;;612.15;577.90;;;28.80;99.90;;;;;;5051326;28;20033;-74
2023/09/09 08:37:59;;;;;;;591.05;558.50;;;29.00;99.90;;;;;;5051028;28;20025;-75
2023/09/09 08:40:25;;;;;;;1999.90;999.90;;;29.20;99.90;;;;;;5050747;28;20033;-74
2023/09/09 08:42:58;;;;;;;1999.90;999.90;;;29.50;99.90;;;;;;5052014;28;20033;-74
2023/09/09 08:45:41;;;;;;;1999.90;999.90;;;29.70;99.90;;;;;;5051205;28;20056;-75
2023/09/09 08:48:08;;;;;;;1999.90;999.90;;;29.80;99.90;;;;;;5050843;28;20025;-74
2023/09/09 08:50:38;;;;;;;1999.90;999.90;;;29.80;99.90;;;;;;5051615;28;20045;-74
2023/09/09 08:53:07;;;;;;;1999.90;999.90;;;29.80;99.90;;;;;;5055399;28;20033;-74
2023/09/09 08:55:33;;;;;;;1999.90;999.90;;;30.00;99.90;;;;;;5038430;28;20037;-75
2023/09/09 08:58:00;;;;;;;1999.90;999.90;;;30.00;99.90;;;;;;5055870;28;20025;-75
2023/09/09 09:00:33;;;;;;;1999.90;999.90;;;30.10;99.90;;;;;;5055054;28;20036;-75
2023/09/09 09:03:03;;;;;;;1999.90;999.90;;;30.10;99.90;;;;;;5054705;28;20036;-74
2023/09/09 09:05:32;;;;;;;1999.90;999.90;;;30.10;99.40;;;;;;5053968;28;20077;-74
2023/09/09 09:08:01;;;;;;;1999.90;999.90;;;29.70;98.50;;;;;;5055650;28;20036;-75
2023/09/09 09:10:27;;;;;;;1999.90;999.90;;;29.50;99.40;;;;;;5053924;28;20398;-75
2023/09/09 09:12:54;;;;;;;1999.90;999.90;;;29.60;98.90;;;;;;5053059;28;20387;-74
2023/09/09 09:15:20;;;;;;;1999.90;999.90;;;29.50;99.50;;;;;;5054511;28;20049;-75
2023/09/09 09:17:46;;;;;;;1999.90;999.90;;;29.80;99.50;;;;;;5055482;28;20041;-75
2023/09/09 09:20:26;;;;;;;1999.90;999.90;;;29.60;98.70;;;;;;5054877;28;20029;-75
2023/09/09 09:22:53;;;;;;;1999.90;999.90;;;29.50;98.90;;;;;;5054717;28;20112;-74
2023/09/09 09:25:20;;;;;;;1999.90;999.90;;;29.40;99.70;;;;;;5053993;28;20056;-75
2023/09/09 09:27:46;;;;;;;1999.90;999.90;;;29.40;99.80;;;;;;5055197;28;20033;-75
2023/09/09 09:30:12;;;;;;;1999.90;999.90;;;29.50;99.80;;;;;;5053313;28;20391;-74
2023/09/09 09:32:42;;;;;;;1999.90;999.90;;;29.50;99.90;;;;;;5041461;28;20029;-75
2023/09/09 09:35:27;;;;;;;1999.90;999.90;;;29.50;99.90;;;;;;5034065;28;20495;-77
2023/09/09 09:38:01;;;;;;;1999.90;999.90;;;29.50;99.80;;;;;;5035249;28;20056;-75
2023/09/09 09:40:28;;;;;;;1999.90;999.90;;;29.50;99.70;;;;;;5044110;28;20036;-74
2023/09/09 09:42:54;;;;;;;1999.90;999.90;;;29.50;99.90;;;;;;5053792;28;20034;-74
2023/09/09 09:45:27;;;;;;;1999.90;999.90;;;29.50;99.90;;;;;;5053061;28;20016;-75
2023/09/09 09:47:53;;;;;;;1999.90;999.90;;;29.40;99.90;;;;;;5054681;28;20025;-75
2023/09/09 09:50:22;;;;;;;1999.90;999.90;;;29.50;99.90;;;;;;5053085;28;20045;-75
2023/09/09 09:52:56;;;;;;;1999.90;999.90;;;29.60;99.90;;;;;;5054826;28;20055;-74
2023/09/09 09:55:22;;;;;;;1999.90;999.90;;;29.60;99.40;;;;;;5052525;28;20041;-75
2023/09/09 09:57:48;;;;;;;1999.90;999.90;;;29.70;99.30;;;;;;5054723;28;20032;-75
2023/09/09 10:00:15;;;;;;;1999.90;999.90;;;29.90;99.40;;;;;;5052694;28;20044;-75
2023/09/09 10:02:42;;;;;;;1999.90;999.90;;;30.20;99.30;;;;;;5051908;28;20490;-75
2023/09/09 10:05:12;;;;;;;1999.90;999.90;;;30.40;97.90;;;;;;5054306;28;20045;-74
2023/09/09 10:07:40;;;;;;;;;;;30.50;98.00;;;;;;5055053;28;20033;-75
2023/09/09 10:10:09;;;;;;;1999.90;999.90;;;30.50;97.30;;;;;;5053368;28;19920;-75
2023/09/09 10:13:01;;;;;;;1999.90;999.90;;;30.50;97.20;;;;;;5053330;28;20054;-75
2023/09/09 10:15:27;;;;;;;1999.90;999.90;;;30.40;96.90;;;;;;5045688;28;20041;-74
2023/09/09 10:17:53;;;;;;;1999.90;999.90;;;30.40;96.70;;;;;;5052924;28;20045;-75
2023/09/09 10:20:19;;;;;;;1999.90;999.90;;;30.50;96.80;;;;;;5052785;28;20021;-75
2023/09/09 10:22:47;;;;;;;1999.90;999.90;;;30.50;96.30;;;;;;5052393;28;20403;-75
2023/09/09 10:25:13;;;;;;;1999.90;999.90;;;30.40;95.90;;;;;;5052969;28;20184;-75
2023/09/09 10:27:40;;;;;;;1999.90;999.90;;;30.40;96.00;;;;;;5053057;28;20037;-75
2023/09/09 10:30:09;;;;;;;1999.90;999.90;;;30.40;96.00;;;;;;5051964;28;20104;-74
2023/09/09 10:32:36;;;;;;;1999.90;999.90;;;30.50;96.20;;;;;;5054274;28;20048;-74
2023/09/09 10:35:05;;;;;;;1999.90;999.90;;;30.50;95.30;;;;;;5052880;28;20040;-74
2023/09/09 10:37:36;;;;;;;1999.90;999.90;;;30.60;95.90;;;;;;5052804;28;20040;-75
2023/09/09 10:40:05;;;;;;;1999.90;999.90;;;30.60;95.00;;;;;;5052864;28;20032;-75
2023/09/09 10:42:33;;;;;;;1999.90;999.90;;;30.60;94.80;;;;;;5052461;28;20037;-74
2023/09/09 10:45:23;;;;;;;1999.90;999.90;;;30.70;95.30;;;;;;5054016;28;20621;-74
2023/09/09 10:48:06;;;;;;;1999.90;999.90;;;30.70;94.80;;;;;;5040749;28;20406;-74
2023/09/09 10:50:47;;;;;;;1999.90;999.90;;;30.90;94.70;;;;;;5052689;28;20428;-75
2023/09/09 10:53:18;;;;;;;1999.90;999.90;;;31.00;93.40;;;;;;5053795;28;20021;-74
2023/09/09 10:55:45;;;;;;;1999.90;999.90;;;31.10;92.80;;;;;;5052892;28;20514;-74
2023/09/09 10:58:17;;;;;;;1999.90;999.90;;;31.20;92.60;;;;;;5053636;28;20041;-74
2023/09/09 11:00:45;;;;;;;1999.90;999.90;;;31.00;92.60;;;;;;5052575;28;20049;-75
2023/09/09 11:03:40;;;;;;;1999.90;999.90;;;31.10;93.20;;;;;;5053739;28;20029;-74
2023/09/09 11:06:07;;;;;;;1999.90;999.90;;;31.20;92.30;;;;;;4991722;28;20038;-75
2023/09/09 11:08:37;;;;;;;1999.90;999.90;;;31.20;92.10;;;;;;4991614;28;20081;-75
2023/09/09 11:11:16;;;;;;;1999.90;999.90;;;31.30;92.30;;;;;;4991394;28;20547;-75
2023/09/09 11:13:53;;;;;;;1999.90;999.90;;;31.40;91.10;;;;;;4991693;28;20050;-74
2023/09/09 11:16:24;;;;;;;1999.90;999.90;;;31.50;90.90;;;;;;4990261;28;20034;-74
2023/09/09 11:18:54;;;;;;;1999.90;999.90;;;31.40;91.50;;;;;;4991656;28;20035;-75
2023/09/09 11:21:21;;;;;;;1999.90;999.90;;;31.40;91.10;;;;;;4991417;28;20038;-74
2023/09/09 11:23:47;;;;;;;1999.90;999.90;;;31.40;90.90;;;;;;4975687;28;20042;-74
2023/09/09 11:26:14;;;;;;;1999.90;999.90;;;31.40;90.60;;;;;;4971734;28;20046;-74
2023/09/09 11:28:41;;;;;;;1999.90;999.90;;;31.40;89.80;;;;;;4972027;28;20363;-75
2023/09/09 11:31:14;;;;;;;1999.90;999.90;;;31.50;89.70;;;;;;4962052;28;20050;-74
2023/09/09 11:33:40;;;;;;;1999.90;999.90;;;31.60;89.60;;;;;;4972013;28;20031;-74
2023/09/09 11:36:06;;;;;;;1999.90;999.90;;;31.70;89.80;;;;;;4978854;28;20050;-74
2023/09/09 11:38:33;;;;;;;1999.90;999.90;;;31.90;88.30;;;;;;4991388;28;20030;-74
2023/09/09 11:40:59;;;;;;;1999.90;999.90;;;32.00;87.60;;;;;;4990506;28;20381;-74
2023/09/09 11:43:25;;;;;;;1999.90;999.90;;;32.00;86.60;;;;;;5034143;28;20052;-75
2023/09/09 11:45:52;;;;;;;1999.90;999.90;;;32.20;86.70;;;;;;5051940;28;20036;-75
2023/09/09 11:48:18;;;;;;;1999.90;999.90;;;32.20;87.00;;;;;;5052549;28;20041;-74
2023/09/09 11:50:45;;;;;;;1999.90;999.90;;;32.10;87.70;;;;;;5052219;28;20088;-75
2023/09/09 11:53:12;;;;;;;1999.90;999.90;;;32.10;86.90;;;;;;5051531;28;20033;-74
2023/09/09 11:55:38;;;;;;;1999.90;999.90;;;32.10;88.50;;;;;;5052215;28;20041;-74
2023/09/09 11:58:05;;;;;;;1999.90;999.90;;;32.20;87.30;;;;;;5050798;28;20043;-74
2023/09/09 12:00:31;;;;;;;1999.90;999.90;;;32.30;87.80;;;;;;5051728;28;20055;-75
2023/09/09 12:02:57;;;;;;;1999.90;999.90;;;32.40;87.30;;;;;;5052420;28;20025;-75
2023/09/09 12:05:28;;;;;;;1999.90;999.90;;;32.40;87.50;;;;;;5050934;28;20029;-75
2023/09/09 12:07:54;;;;;;;1999.90;999.90;;;32.50;87.80;;;;;;5051941;28;20044;-75
2023/09/09 12:10:20;;;;;;;1999.90;999.90;;;32.70;86.30;;;;;;5050595;28;20458;-76